Latest Weather Observations for Double Island Point

IDQ60801

Issued at 11:32 pm EST Sunday 23 April 2017 (issued every 30 minutes, with the page automatically refreshed every 10 minutes)

About weather observations | Map of weather stations | Latest weather observations for QLD | Other Formats
Station Details ID: 040068 Name: DOUBLE ISLAND POINT LIGHTHOUSE Lat: -25.93 Lon: 153.19 Height: 95.64 m
Data from the previous 72 hours. | See also: Recent months at Double Island Point
Date/Time
EST
Temp
°C
App
Temp
°C
Dew
Point
°C
Rel
Hum
%
Delta-T
°C
Wind Press
QNH
hPa
Press
MSL
hPa
Rain since
9am
mm
Dir  Spd
km/h
Gust
km/h
Spd
kts
Gust
kts
23/11:30pm 22.1 24.7 17.5 75 2.8 CALM 0 0 0 0 1020.7 1020.3 0.2
23/11:00pm 22.1 24.9 17.9 77 2.6 CALM 0 0 0 0 1020.9 1020.5 0.2
23/10:30pm 22.2 24.8 17.6 75 2.9 CALM 0 0 0 0 1021.0 1020.6 0.2
23/10:00pm 22.3 25.1 17.9 76 2.7 CALM 0 0 0 0 1021.1 1020.7 0.2
23/09:30pm 22.3 25.0 17.7 75 2.9 CALM 0 0 0 0 1021.2 1020.8 0.2
23/09:00pm 22.3 25.2 18.1 77 2.6 CALM 0 0 0 0 1021.3 1020.9 0.2
23/08:30pm 22.3 25.2 18.3 78 2.5 CALM 0 0 0 0 1021.2 1020.8 0.2
23/08:00pm 22.4 25.4 18.4 78 2.5 CALM 0 0 0 0 1020.7 1020.3 0.2
23/07:30pm 22.4 25.4 18.4 78 2.5 CALM 0 0 0 0 1020.4 1020.0 0.2
23/07:00pm 22.3 25.0 17.7 75 2.9 CALM 0 0 0 0 1020.2 1019.8 0.2
23/06:30pm 22.3 25.0 17.7 75 2.9 CALM 0 0 0 0 1020.1 1019.7 0.2
23/06:00pm 22.4 25.3 18.2 77 2.6 CALM 0 0 0 0 1019.8 1019.4 0.2
23/05:30pm 22.4 25.4 18.4 78 2.5 CALM 0 0 0 0 1019.7 1019.3 0.2
23/05:00pm 22.5 25.5 18.5 78 2.5 CALM 0 0 0 0 1019.7 1019.3 0.2
23/04:30pm 22.6 25.5 18.2 76 2.8 CALM 0 0 0 0 1019.6 1019.2 0.2
23/04:00pm 22.8 25.7 18.1 75 2.9 CALM 0 0 0 0 1019.3 1018.9 0.2
23/03:30pm 22.9 26.1 18.9 78 2.5 CALM 0 0 0 0 1019.2 1018.8 0.2
23/03:00pm 23.1 26.2 18.6 76 2.8 CALM 0 0 0 0 1019.2 1018.8 0.2
23/02:30pm 23.2 26.7 19.6 80 2.3 CALM 0 0 0 0 1019.1 1018.7 0.2
23/02:00pm 23.2 26.3 18.7 76 2.8 CALM 0 0 0 0 1019.2 1018.8 0.2
23/01:30pm 24.1 27.9 20.2 79 2.5 CALM 0 0 0 0 1019.4 1019.0 0.2
23/01:00pm 22.9 27.1 21.0 89 1.2 CALM 0 0 0 0 1019.8 1019.4 0.2
23/12:30pm 21.5 25.4 20.3 93 0.8 CALM 0 0 0 0 1020.3 1019.9 0.2
23/12:00pm 22.4 26.1 19.9 86 1.6 CALM 0 0 0 0 1020.5 1020.1 0.2
23/11:30am 22.7 27.1 21.3 92 0.9 CALM 0 0 0 0 1020.5 1020.1 0.2
23/11:00am 22.2 26.4 21.0 93 0.8 CALM 0 0 0 0 1020.8 1020.4 0.2
23/10:30am 20.9 25.0 20.7 99 0.1 CALM 0 0 0 0 1021.6 1021.2 0.2
23/10:00am 21.0 25.1 20.8 99 0.1 CALM 0 0 0 0 1021.8 1021.4 0.2
23/09:30am 20.2 24.0 20.2 100 0.0 CALM 0 0 0 0 1022.0 1021.6 0.2
23/09:00am 20.1 23.8 19.9 99 0.1 CALM 0 0 0 0 1021.9 1021.5 10.2
23/08:30am 20.7 24.7 20.5 99 0.1 CALM 0 0 0 0 1021.6 1021.2 10.2
23/08:00am 20.7 24.7 20.5 99 0.1 CALM 0 0 0 0 1021.8 1021.4 10.2
23/07:30am 20.1 23.9 20.1 100 0.0 CALM 0 0 0 0 1021.3 1020.9 10.2
23/07:00am 20.5 24.5 20.5 100 0.0 CALM 0 0 0 0 1021.1 1020.7 9.6
23/06:30am 19.6 23.1 19.6 100 0.0 CALM 0 0 0 0 1021.1 1020.7 4.8
23/06:00am 19.7 23.3 19.7 100 0.0 CALM 0 0 0 0 1020.6 1020.2 3.2
23/05:30am 19.5 23.0 19.5 100 0.0 CALM 0 0 0 0 1020.4 1020.0 3.2
23/05:00am 19.9 23.6 19.9 100 0.0 CALM 0 0 0 0 1020.2 1019.8 2.8
23/04:30am 19.7 23.3 19.7 100 0.0 CALM 0 0 0 0 1020.1 1019.7 2.6
23/04:00am 20.4 23.8 19.4 94 0.6 CALM 0 0 0 0 1019.6 1019.2 1.2
23/03:30am 21.3 24.7 19.4 89 1.2 CALM 0 0 0 0 1019.6 1019.2 1.2
23/03:00am 21.5 24.8 19.2 87 1.5 CALM 0 0 0 0 1019.9 1019.5 1.2
23/02:30am 20.8 24.8 20.5 98 0.2 CALM 0 0 0 0 1019.9 1019.5 1.2
23/02:00am 20.9 24.5 19.7 93 0.8 CALM 0 0 0 0 1020.2 1019.8 1.2
23/01:30am 20.4 23.8 19.4 94 0.6 CALM 0 0 0 0 1020.4 1020.0 1.2
23/01:00am 20.8 24.0 18.9 89 1.2 CALM 0 0 0 0 1020.8 1020.4 1.2
23/12:30am 21.2 24.4 18.9 87 1.5 CALM 0 0 0 0 1021.1 1020.7 1.2
23/12:00am 21.2 24.2 18.4 84 1.7 CALM 0 2 0 1 1021.2 1020.8 1.2
 
Date/Time
EST
Temp
°C
App
Temp
°C
Dew
Point
°C
Rel
Hum
%
Delta-T
°C
Wind Press
QNH
hPa
Press
MSL
hPa
Rain since
9am
mm
Dir  Spd
km/h
Gust
km/h
Spd
kts
Gust
kts
22/11:30pm 21.9 24.6 17.7 77 2.6 CALM 0 0 0 0 1021.4 1021.0 1.2
22/11:00pm 22.1 24.6 17.2 74 3.0 CALM 0 0 0 0 1021.6 1021.2 1.2
22/10:30pm 22.0 24.6 17.4 75 2.8 CALM 0 2 0 1 1021.9 1021.5 1.2
22/10:00pm 22.1 24.4 16.8 72 3.2 CALM 0 0 0 0 1022.0 1021.6 1.2
22/09:30pm 21.9 24.3 17.1 74 3.0 CALM 0 0 0 0 1022.2 1021.8 1.2
22/09:00pm 21.9 24.2 16.8 73 3.1 CALM 0 0 0 0 1022.4 1022.0 1.2
22/08:30pm 21.9 23.9 16.0 69 3.6 CALM 0 0 0 0 1022.6 1022.2 1.2
22/08:00pm 21.9 23.7 15.5 67 3.8 CALM 0 0 0 0 1022.4 1022.0 1.2
22/07:30pm 21.9 24.0 16.2 70 3.5 CALM 0 0 0 0 1022.3 1021.9 1.2
22/07:00pm 22.0 23.9 15.8 68 3.7 CALM 0 0 0 0 1021.8 1021.4 1.2
22/06:30pm 22.2 24.3 16.2 69 3.6 CALM 0 0 0 0 1021.4 1021.0 1.2
22/06:00pm 22.2 24.2 16.0 68 3.7 CALM 0 0 0 0 1021.2 1020.8 1.2
22/05:30pm 22.1 24.3 16.4 70 3.5 CALM 0 0 0 0 1020.8 1020.4 1.2
22/05:00pm 22.2 24.1 15.8 67 3.8 CALM 0 0 0 0 1020.7 1020.3 1.2
22/04:30pm 22.3 24.6 16.8 71 3.4 CALM 0 0 0 0 1020.7 1020.3 1.2
22/04:00pm 22.5 24.8 16.8 70 3.5 CALM 0 0 0 0 1020.5 1020.1 1.2
22/03:30pm 22.5 24.6 16.3 68 3.8 CALM 0 0 0 0 1020.1 1019.7 1.2
22/03:00pm 22.8 25.7 18.3 76 2.8 CALM 0 0 0 0 1020.0 1019.6 1.2
22/02:30pm 22.8 25.6 17.9 74 3.1 CALM 0 0 0 0 1020.0 1019.6 1.2
22/02:00pm 23.0 26.3 19.0 78 2.5 CALM 0 0 0 0 1019.9 1019.5 1.2
22/01:30pm 23.2 26.2 18.5 75 3.0 CALM 0 0 0 0 1020.1 1019.7 1.2
22/01:00pm 23.4 26.8 19.3 78 2.6 CALM 0 0 0 0 1020.3 1019.9 1.2
22/12:30pm 22.7 26.2 19.5 82 2.1 CALM 0 7 0 4 1020.8 1020.4 1.2
22/12:08pm 20.7 21.5 20.7 100 0.0 SSE 17 41 9 22 1021.2 1020.8 1.2
22/12:00pm 20.4 24.3 20.4 100 0.0 CALM 0 20 0 11 1021.3 1020.9 1.2
22/11:30am 20.4 24.3 20.4 100 0.0 CALM 0 2 0 1 1021.7 1021.3 1.0
22/11:00am 20.4 24.3 20.4 100 0.0 CALM 0 0 0 0 1022.1 1021.7 1.0
22/10:30am 20.1 23.9 20.1 100 0.0 CALM 0 0 0 0 1022.6 1022.2 1.0
22/10:00am 19.6 23.1 19.6 100 0.0 CALM 0 0 0 0 1022.9 1022.5 0.8
22/09:30am 20.0 23.7 20.0 100 0.0 CALM 0 0 0 0 1023.0 1022.6 0.2
22/09:00am 21.2 25.1 20.4 95 0.5 CALM 0 0 0 0 1022.6 1022.2 2.0
22/08:30am 20.8 24.8 20.5 98 0.2 CALM 0 0 0 0 1022.4 1022.0 2.0
22/08:00am 21.9 25.6 20.0 89 1.2 CALM 0 0 0 0 1022.1 1021.7 2.0
22/07:31am 22.2 23.2 21.0 93 0.8 ESE 17 52 9 28 1021.8 1021.4 2.0
22/07:30am 22.2 23.5 20.8 92 0.9 ESE 15 52 8 28 1021.8 1021.4 2.0
22/07:28am 22.3 25.3 20.9 92 0.9 ESE 6 52 3 28 1021.8 1021.4 2.0
22/07:00am 20.3 24.2 20.3 100 0.0 CALM 0 0 0 0 1021.7 1021.3 2.0
22/06:30am 19.6 23.1 19.6 100 0.0 CALM 0 0 0 0 1021.5 1021.1 2.0
22/06:00am 19.7 17.0 19.7 100 0.0 S 33 44 18 24 1021.0 1020.6 2.0
22/05:41am 20.0 21.9 19.8 99 0.1 S 9 43 5 23 1020.9 1020.5 2.0
22/05:30am 20.3 24.0 20.0 98 0.2 CALM 0 0 0 0 1020.7 1020.3 2.0
22/05:00am 20.4 24.2 20.1 98 0.2 CALM 0 0 0 0 1020.7 1020.3 2.0
22/04:30am 20.1 23.9 20.1 100 0.0 CALM 0 0 0 0 1020.3 1019.9 2.0
22/04:00am 19.8 23.3 19.6 99 0.1 CALM 0 0 0 0 1020.0 1019.6 2.0
22/03:30am 20.1 23.8 19.9 99 0.1 CALM 0 0 0 0 1020.3 1019.9 2.0
22/03:00am 20.3 24.1 20.1 99 0.1 CALM 0 0 0 0 1020.5 1020.1 2.0
22/02:30am 20.6 23.9 19.1 91 0.9 CALM 0 0 0 0 1020.8 1020.4 2.0
22/02:00am 22.1 25.0 18.1 78 2.5 CALM 0 0 0 0 1020.9 1020.5 2.0
22/01:30am 22.2 25.1 18.2 78 2.5 CALM 0 0 0 0 1021.2 1020.8 2.0
22/01:00am 22.3 25.1 17.9 76 2.7 CALM 0 0 0 0 1021.5 1021.1 2.0
22/12:30am 22.2 25.1 18.2 78 2.5 CALM 0 0 0 0 1021.6 1021.2 2.0
22/12:00am 22.2 25.5 19.0 82 2.0 CALM 0 0 0 0 1022.0 1021.6 2.0
 
Date/Time
EST
Temp
°C
App
Temp
°C
Dew
Point
°C
Rel
Hum
%
Delta-T
°C
Wind Press
QNH
hPa
Press
MSL
hPa
Rain since
9am
mm
Dir  Spd
km/h
Gust
km/h
Spd
kts
Gust
kts
21/11:30pm 22.3 25.5 18.9 81 2.2 CALM 0 0 0 0 1022.1 1021.7 2.0
21/11:00pm 22.3 25.4 18.7 80 2.3 CALM 0 0 0 0 1022.3 1021.9 2.0
21/10:30pm 22.3 25.5 18.9 81 2.2 CALM 0 0 0 0 1022.6 1022.2 2.0
21/10:00pm 22.2 25.2 18.4 79 2.4 CALM 0 0 0 0 1022.7 1022.3 2.0
21/09:30pm 22.1 25.0 18.3 79 2.4 CALM 0 0 0 0 1022.8 1022.4 2.0
21/09:00pm 22.3 24.5 16.6 70 3.5 CALM 0 0 0 0 1023.1 1022.7 2.0
21/08:30pm 22.3 24.6 16.8 71 3.4 CALM 0 0 0 0 1023.0 1022.6 2.0
21/08:00pm 22.3 24.4 16.3 69 3.6 CALM 0 0 0 0 1022.6 1022.2 2.0
21/07:30pm 22.3 24.6 16.8 71 3.4 CALM 0 13 0 7 1022.4 1022.0 2.0
21/07:04pm 22.3 22.7 17.2 73 3.1 ESE 11 48 6 26 1022.4 1022.0 2.0
21/07:00pm 22.3 25.2 18.3 78 2.5 CALM 0 30 0 16 1022.4 1022.0 2.0
21/06:30pm 22.3 24.6 17.7 75 2.9 SE 2 17 1 9 1021.8 1021.4 2.0
21/06:00pm 22.2 24.8 17.6 75 2.8 CALM 0 0 0 0 1022.1 1021.7 2.0
21/05:30pm 22.1 24.3 16.6 71 3.4 CALM 0 0 0 0 1021.8 1021.4 2.0
21/05:00pm 22.2 24.2 16.0 68 3.7 CALM 0 30 0 16 1021.4 1021.0 2.0
21/04:30pm 22.2 24.6 17.1 73 3.1 CALM 0 0 0 0 1021.3 1020.9 2.0
21/04:00pm 21.7 24.8 18.7 83 1.9 CALM 0 9 0 5 1020.8 1020.4 2.0
21/03:30pm 21.6 19.9 19.0 85 1.6 ESE 26 48 14 26 1020.9 1020.5 2.0
21/03:24pm 21.5 23.0 18.9 85 1.6 SE 9 48 5 26 1021.0 1020.6 2.0
21/03:00pm 21.4 24.6 18.8 85 1.6 CALM 0 2 0 1 1021.1 1020.7 2.0
21/02:30pm 22.4 25.8 19.4 83 1.9 CALM 0 0 0 0 1021.3 1020.9 2.0
21/02:00pm 21.6 25.1 19.5 88 1.3 CALM 0 0 0 0 1021.3 1020.9 2.0
21/01:30pm 20.4 24.2 20.2 99 0.1 CALM 0 0 0 0 1021.3 1020.9 2.0
21/01:00pm 19.5 22.9 19.3 99 0.1 CALM 0 0 0 0 1021.7 1021.3 1.4
21/12:30pm 20.6 24.5 20.3 98 0.2 CALM 0 0 0 0 1021.9 1021.5 0.4
21/12:00pm 22.2 26.3 20.7 91 1.0 CALM 0 0 0 0 1022.3 1021.9 0.4
21/11:30am 21.6 25.6 20.6 94 0.6 CALM 0 0 0 0 1022.6 1022.2 0.4
21/11:00am 21.7 25.4 20.0 90 1.1 CALM 0 0 0 0 1022.8 1022.4 0.0
21/10:30am 22.7 26.0 19.1 80 2.3 CALM 0 0 0 0 1023.4 1023.1 0.0
21/10:00am 22.5 25.7 18.9 80 2.3 CALM 0 0 0 0 1023.4 1023.1 0.0
21/09:30am 23.6 26.2 17.6 69 3.7 CALM 0 0 0 0 1023.5 1023.2 0.0
21/09:00am 23.3 26.2 18.2 73 3.2 CALM 0 0 0 0 1023.4 1023.1 34.6
21/08:30am 23.0 25.9 18.1 74 3.1 CALM 0 0 0 0 1023.3 1022.9 34.6
21/08:00am 22.2 25.4 18.8 81 2.1 CALM 0 0 0 0 1023.2 1022.8 34.6
21/07:30am 22.2 25.3 18.6 80 2.3 CALM 0 0 0 0 1023.0 1022.6 34.6
21/07:00am 22.4 25.2 18.0 76 2.7 CALM 0 0 0 0 1022.6 1022.2 34.6
21/06:30am 21.9 25.0 18.7 82 2.0 CALM 0 0 0 0 1022.1 1021.7 34.6
21/06:00am 21.3 24.5 18.9 86 1.5 CALM 0 0 0 0 1021.7 1021.3 34.6
21/05:30am 21.2 25.0 20.2 94 0.6 CALM 0 0 0 0 1021.4 1021.0 34.6
21/05:00am 20.8 24.8 20.6 99 0.1 CALM 0 0 0 0 1021.2 1020.8 34.6
21/04:30am 20.3 24.1 20.1 99 0.1 CALM 0 0 0 0 1021.4 1021.0 34.6
21/04:00am 21.1 25.0 20.4 96 0.5 CALM 0 0 0 0 1020.9 1020.5 34.4
21/03:30am 21.3 25.2 20.3 94 0.6 CALM 0 0 0 0 1021.0 1020.6 34.4
21/03:00am 21.6 25.4 20.2 92 0.9 CALM 0 0 0 0 1021.0 1020.6 34.4
21/02:30am 22.1 25.7 19.8 87 1.5 CALM 0 0 0 0 1021.4 1021.0 34.4
21/02:00am 21.9 25.3 19.3 85 1.7 CALM 0 0 0 0 1021.6 1021.2 34.4
21/01:30am 22.0 25.5 19.5 86 1.6 CALM 0 0 0 0 1022.0 1021.6 34.4
21/01:00am 20.3 24.0 20.0 98 0.2 CALM 0 0 0 0 1022.1 1021.7 34.4
21/12:30am 19.7 23.2 19.5 99 0.1 CALM 0 0 0 0 1022.4 1022.0 34.4
21/12:00am 20.3 24.2 20.3 100 0.0 CALM 0 0 0 0 1022.2 1021.8 34.4

Other Formats:

Comma delimited format used in spreadsheet applications
http://www.bom.gov.au/fwo/IDQ60801/IDQ60801.94584.axf

JavaScript Object Notation format (JSON) in row-major order
http://www.bom.gov.au/fwo/IDQ60801/IDQ60801.94584.json